sensor_id;sensor_type;location;lat;lon;timestamp;temperature;humidity
11091;DHT22;5599;52.210;21.046;2024-02-28T00:02:01;12.40;1.00
11091;DHT22;5599;52.210;21.046;2024-02-28T00:04:31;12.40;1.00
11091;DHT22;5599;52.210;21.046;2024-02-28T00:07:00;12.30;1.00
11091;DHT22;5599;52.210;21.046;2024-02-28T00:09:29;12.30;1.00
11091;DHT22;5599;52.210;21.046;2024-02-28T00:11:58;12.30;1.00
11091;DHT22;5599;52.210;21.046;2024-02-28T00:14:27;12.30;1.00
11091;DHT22;5599;52.210;21.046;2024-02-28T00:16:56;12.30;1.00
11091;DHT22;5599;52.210;21.046;2024-02-28T00:19:25;12.30;1.00
11091;DHT22;5599;52.210;21.046;2024-02-28T00:21:55;12.30;1.00
11091;DHT22;5599;52.210;21.046;2024-02-28T00:24:24;12.30;1.00
11091;DHT22;5599;52.210;21.046;2024-02-28T00:26:53;12.30;1.00
11091;DHT22;5599;52.210;21.046;2024-02-28T00:29:22;12.30;1.00
11091;DHT22;5599;52.210;21.046;2024-02-28T00:31:51;12.30;1.00
11091;DHT22;5599;52.210;21.046;2024-02-28T00:34:20;12.30;1.00
11091;DHT22;5599;52.210;21.046;2024-02-28T00:36:48;12.30;1.00
11091;DHT22;5599;52.210;21.046;2024-02-28T00:39:24;12.40;1.00
11091;DHT22;5599;52.210;21.046;2024-02-28T00:41:53;12.40;1.00
11091;DHT22;5599;52.210;21.046;2024-02-28T00:44:21;12.30;1.00
11091;DHT22;5599;52.210;21.046;2024-02-28T00:46:50;12.20;1.00
11091;DHT22;5599;52.210;21.046;2024-02-28T00:49:19;12.30;28.10
11091;DHT22;5599;52.210;21.046;2024-02-28T00:51:48;12.30;1.00
11091;DHT22;5599;52.210;21.046;2024-02-28T00:54:17;12.30;35.10
11091;DHT22;5599;52.210;21.046;2024-02-28T00:56:47;12.30;1.00
11091;DHT22;5599;52.210;21.046;2024-02-28T00:59:16;12.20;88.10
11091;DHT22;5599;52.210;21.046;2024-02-28T01:01:45;12.30;30.60
11091;DHT22;5599;52.210;21.046;2024-02-28T01:04:14;12.20;74.60
11091;DHT22;5599;52.210;21.046;2024-02-28T01:06:43;12.20;99.90
11091;DHT22;5599;52.210;21.046;2024-02-28T01:09:12;12.30;99.90
11091;DHT22;5599;52.210;21.046;2024-02-28T01:11:40;12.20;99.90
11091;DHT22;5599;52.210;21.046;2024-02-28T01:14:11;12.30;99.90
11091;DHT22;5599;52.210;21.046;2024-02-28T01:16:40;12.20;99.90
11091;DHT22;5599;52.210;21.046;2024-02-28T01:19:09;12.30;99.90
11091;DHT22;5599;52.210;21.046;2024-02-28T01:21:38;12.30;99.90
11091;DHT22;5599;52.210;21.046;2024-02-28T01:24:08;12.40;99.90
11091;DHT22;5599;52.210;21.046;2024-02-28T01:26:37;12.40;99.90
11091;DHT22;5599;52.210;21.046;2024-02-28T01:29:05;12.40;99.90
11091;DHT22;5599;52.210;21.046;2024-02-28T01:31:35;12.40;99.90
11091;DHT22;5599;52.210;21.046;2024-02-28T01:34:04;12.40;99.90
11091;DHT22;5599;52.210;21.046;2024-02-28T01:36:33;12.40;99.90
11091;DHT22;5599;52.210;21.046;2024-02-28T01:39:02;12.40;99.90
11091;DHT22;5599;52.210;21.046;2024-02-28T01:41:31;12.40;99.90
11091;DHT22;5599;52.210;21.046;2024-02-28T01:44:00;12.40;99.90
11091;DHT22;5599;52.210;21.046;2024-02-28T01:46:29;12.30;99.90
11091;DHT22;5599;52.210;21.046;2024-02-28T01:49:00;12.30;99.90
11091;DHT22;5599;52.210;21.046;2024-02-28T01:51:29;12.30;99.90
11091;DHT22;5599;52.210;21.046;2024-02-28T01:53:58;12.30;99.90
11091;DHT22;5599;52.210;21.046;2024-02-28T01:56:27;12.30;99.90
11091;DHT22;5599;52.210;21.046;2024-02-28T01:58:56;12.30;99.90
11091;DHT22;5599;52.210;21.046;2024-02-28T02:01:26;12.30;99.90
11091;DHT22;5599;52.210;21.046;2024-02-28T02:03:55;12.30;1.00
11091;DHT22;5599;52.210;21.046;2024-02-28T02:06:25;12.30;99.90
11091;DHT22;5599;52.210;21.046;2024-02-28T02:08:54;12.30;99.90
11091;DHT22;5599;52.210;21.046;2024-02-28T02:11:24;12.30;99.90
11091;DHT22;5599;52.210;21.046;2024-02-28T02:13:53;12.30;99.90
11091;DHT22;5599;52.210;21.046;2024-02-28T02:16:22;12.40;99.90
11091;DHT22;5599;52.210;21.046;2024-02-28T02:18:54;12.30;99.90
11091;DHT22;5599;52.210;21.046;2024-02-28T02:21:26;12.30;1.00
11091;DHT22;5599;52.210;21.046;2024-02-28T02:24:00;12.40;1.00
11091;DHT22;5599;52.210;21.046;2024-02-28T02:26:28;12.30;1.00
11091;DHT22;5599;52.210;21.046;2024-02-28T02:28:57;12.30;1.00
11091;DHT22;5599;52.210;21.046;2024-02-28T02:31:26;12.40;1.00
11091;DHT22;5599;52.210;21.046;2024-02-28T02:33:55;12.40;1.00
11091;DHT22;5599;52.210;21.046;2024-02-28T02:36:24;12.40;1.00
11091;DHT22;5599;52.210;21.046;2024-02-28T02:38:52;12.10;1.00
11091;DHT22;5599;52.210;21.046;2024-02-28T02:41:23;12.10;1.00
11091;DHT22;5599;52.210;21.046;2024-02-28T02:43:52;12.10;1.00
11091;DHT22;5599;52.210;21.046;2024-02-28T02:46:20;12.10;1.00
11091;DHT22;5599;52.210;21.046;2024-02-28T02:48:49;12.20;1.00
11091;DHT22;5599;52.210;21.046;2024-02-28T02:51:18;12.00;1.00
11091;DHT22;5599;52.210;21.046;2024-02-28T02:53:47;11.70;1.00
11091;DHT22;5599;52.210;21.046;2024-02-28T02:56:16;11.70;22.30
11091;DHT22;5599;52.210;21.046;2024-02-28T02:58:46;11.60;40.10
11091;DHT22;5599;52.210;21.046;2024-02-28T03:01:15;11.60;98.20
11091;DHT22;5599;52.210;21.046;2024-02-28T03:03:44;11.70;99.90
11091;DHT22;5599;52.210;21.046;2024-02-28T03:06:13;11.70;92.70
11091;DHT22;5599;52.210;21.046;2024-02-28T03:08:42;11.80;76.40
11091;DHT22;5599;52.210;21.046;2024-02-28T03:11:11;11.80;76.30
11091;DHT22;5599;52.210;21.046;2024-02-28T03:13:40;11.90;65.30
11091;DHT22;5599;52.210;21.046;2024-02-28T03:16:10;11.90;25.10
11091;DHT22;5599;52.210;21.046;2024-02-28T03:18:39;11.90;44.30
11091;DHT22;5599;52.210;21.046;2024-02-28T03:21:08;11.90;51.00
11091;DHT22;5599;52.210;21.046;2024-02-28T03:23:37;11.90;55.00
11091;DHT22;5599;52.210;21.046;2024-02-28T03:26:06;11.90;56.80
11091;DHT22;5599;52.210;21.046;2024-02-28T03:28:35;11.90;51.40
11091;DHT22;5599;52.210;21.046;2024-02-28T03:31:04;12.00;32.70
11091;DHT22;5599;52.210;21.046;2024-02-28T03:33:34;12.00;26.60
11091;DHT22;5599;52.210;21.046;2024-02-28T03:36:03;11.90;31.50
11091;DHT22;5599;52.210;21.046;2024-02-28T03:38:32;11.90;39.60
11091;DHT22;5599;52.210;21.046;2024-02-28T03:41:02;11.90;47.20
11091;DHT22;5599;52.210;21.046;2024-02-28T03:43:31;12.00;60.20
11091;DHT22;5599;52.210;21.046;2024-02-28T03:46:00;12.00;31.20
11091;DHT22;5599;52.210;21.046;2024-02-28T03:48:28;12.00;22.50
11091;DHT22;5599;52.210;21.046;2024-02-28T03:50:59;12.00;22.20
11091;DHT22;5599;52.210;21.046;2024-02-28T03:53:28;12.00;38.00
11091;DHT22;5599;52.210;21.046;2024-02-28T03:55:56;12.00;47.10
11091;DHT22;5599;52.210;21.046;2024-02-28T03:58:25;12.00;59.00
11091;DHT22;5599;52.210;21.046;2024-02-28T04:00:54;12.00;58.20
11091;DHT22;5599;52.210;21.046;2024-02-28T04:03:23;12.00;37.10
11091;DHT22;5599;52.210;21.046;2024-02-28T04:05:52;12.00;53.10
11091;DHT22;5599;52.210;21.046;2024-02-28T04:08:22;12.00;47.70
11091;DHT22;5599;52.210;21.046;2024-02-28T04:10:51;12.00;40.60
11091;DHT22;5599;52.210;21.046;2024-02-28T04:13:20;12.00;29.90
11091;DHT22;5599;52.210;21.046;2024-02-28T04:15:48;12.00;41.10
11091;DHT22;5599;52.210;21.046;2024-02-28T04:18:17;12.00;31.00
11091;DHT22;5599;52.210;21.046;2024-02-28T04:20:46;12.00;20.10
11091;DHT22;5599;52.210;21.046;2024-02-28T04:23:14;12.00;29.40
11091;DHT22;5599;52.210;21.046;2024-02-28T04:25:45;11.90;26.70
11091;DHT22;5599;52.210;21.046;2024-02-28T04:28:14;11.90;29.00
11091;DHT22;5599;52.210;21.046;2024-02-28T04:30:43;11.90;62.80
11091;DHT22;5599;52.210;21.046;2024-02-28T04:33:12;11.80;42.50
11091;DHT22;5599;52.210;21.046;2024-02-28T04:35:41;11.70;53.30
11091;DHT22;5599;52.210;21.046;2024-02-28T04:38:09;11.60;92.90
11091;DHT22;5599;52.210;21.046;2024-02-28T04:40:38;11.40;99.90
11091;DHT22;5599;52.210;21.046;2024-02-28T04:43:08;11.40;99.90
11091;DHT22;5599;52.210;21.046;2024-02-28T04:45:37;11.40;99.90
11091;DHT22;5599;52.210;21.046;2024-02-28T04:48:07;11.40;99.90
11091;DHT22;5599;52.210;21.046;2024-02-28T04:50:36;11.20;99.90
11091;DHT22;5599;52.210;21.046;2024-02-28T04:53:04;11.20;99.90
11091;DHT22;5599;52.210;21.046;2024-02-28T04:55:33;11.20;99.90
11091;DHT22;5599;52.210;21.046;2024-02-28T04:58:02;11.20;99.90
11091;DHT22;5599;52.210;21.046;2024-02-28T05:00:32;11.30;99.90
11091;DHT22;5599;52.210;21.046;2024-02-28T05:03:01;11.30;99.90
11091;DHT22;5599;52.210;21.046;2024-02-28T05:05:30;11.30;99.90
11091;DHT22;5599;52.210;21.046;2024-02-28T05:07:59;11.30;99.90
11091;DHT22;5599;52.210;21.046;2024-02-28T05:10:28;11.30;99.90
11091;DHT22;5599;52.210;21.046;2024-02-28T05:12:56;11.30;99.90
11091;DHT22;5599;52.210;21.046;2024-02-28T05:15:25;11.30;99.90
11091;DHT22;5599;52.210;21.046;2024-02-28T05:17:55;11.30;99.90
11091;DHT22;5599;52.210;21.046;2024-02-28T05:20:24;11.30;99.90
11091;DHT22;5599;52.210;21.046;2024-02-28T05:22:53;11.30;99.90
11091;DHT22;5599;52.210;21.046;2024-02-28T05:25:22;11.20;99.90
11091;DHT22;5599;52.210;21.046;2024-02-28T05:27:51;11.20;99.90
11091;DHT22;5599;52.210;21.046;2024-02-28T05:30:20;11.20;99.90
11091;DHT22;5599;52.210;21.046;2024-02-28T05:32:49;11.20;99.90
11091;DHT22;5599;52.210;21.046;2024-02-28T05:35:20;11.20;99.90
11091;DHT22;5599;52.210;21.046;2024-02-28T05:37:53;11.20;99.90
11091;DHT22;5599;52.210;21.046;2024-02-28T05:40:22;11.20;99.90
11091;DHT22;5599;52.210;21.046;2024-02-28T05:42:51;11.20;99.90
11091;DHT22;5599;52.210;21.046;2024-02-28T05:45:20;11.20;99.90
11091;DHT22;5599;52.210;21.046;2024-02-28T05:47:49;11.30;99.90
11091;DHT22;5599;52.210;21.046;2024-02-28T05:50:19;11.30;99.90
11091;DHT22;5599;52.210;21.046;2024-02-28T05:52:48;11.20;99.90
11091;DHT22;5599;52.210;21.046;2024-02-28T05:55:17;11.20;99.90
11091;DHT22;5599;52.210;21.046;2024-02-28T05:57:46;11.20;99.90
11091;DHT22;5599;52.210;21.046;2024-02-28T06:00:16;11.20;99.90
11091;DHT22;5599;52.210;21.046;2024-02-28T06:02:45;11.30;99.90
11091;DHT22;5599;52.210;21.046;2024-02-28T06:05:14;11.30;99.90
11091;DHT22;5599;52.210;21.046;2024-02-28T06:07:44;11.30;99.90
11091;DHT22;5599;52.210;21.046;2024-02-28T06:10:13;11.50;99.90
11091;DHT22;5599;52.210;21.046;2024-02-28T06:12:42;11.50;99.90
11091;DHT22;5599;52.210;21.046;2024-02-28T06:15:11;11.50;90.10
11091;DHT22;5599;52.210;21.046;2024-02-28T06:17:40;11.50;85.30
11091;DHT22;5599;52.210;21.046;2024-02-28T06:20:09;11.50;93.60
11091;DHT22;5599;52.210;21.046;2024-02-28T06:22:38;11.60;99.90
11091;DHT22;5599;52.210;21.046;2024-02-28T06:25:08;11.60;48.40
11091;DHT22;5599;52.210;21.046;2024-02-28T06:27:45;11.50;56.30
11091;DHT22;5599;52.210;21.046;2024-02-28T06:30:15;11.50;86.40
11091;DHT22;5599;52.210;21.046;2024-02-28T06:32:45;11.60;95.50
11091;DHT22;5599;52.210;21.046;2024-02-28T06:35:14;11.60;90.00
11091;DHT22;5599;52.210;21.046;2024-02-28T06:37:43;11.60;71.60
11091;DHT22;5599;52.210;21.046;2024-02-28T06:40:18;11.60;61.20
11091;DHT22;5599;52.210;21.046;2024-02-28T06:42:47;11.60;95.60
11091;DHT22;5599;52.210;21.046;2024-02-28T06:45:16;11.70;93.40
11091;DHT22;5599;52.210;21.046;2024-02-28T06:47:45;11.70;71.80
11091;DHT22;5599;52.210;21.046;2024-02-28T06:50:14;11.70;66.90
11091;DHT22;5599;52.210;21.046;2024-02-28T06:52:43;11.70;57.90
11091;DHT22;5599;52.210;21.046;2024-02-28T06:55:12;11.60;53.90
11091;DHT22;5599;52.210;21.046;2024-02-28T06:57:43;11.70;82.70
11091;DHT22;5599;52.210;21.046;2024-02-28T07:00:12;11.70;95.10
11091;DHT22;5599;52.210;21.046;2024-02-28T07:02:42;11.60;76.00
11091;DHT22;5599;52.210;21.046;2024-02-28T07:05:11;11.70;89.00
11091;DHT22;5599;52.210;21.046;2024-02-28T07:07:40;11.70;82.30
11091;DHT22;5599;52.210;21.046;2024-02-28T07:10:09;11.70;79.10
11091;DHT22;5599;52.210;21.046;2024-02-28T07:12:38;11.70;97.10
11091;DHT22;5599;52.210;21.046;2024-02-28T07:15:09;11.80;83.40
11091;DHT22;5599;52.210;21.046;2024-02-28T07:17:38;11.80;76.20
11091;DHT22;5599;52.210;21.046;2024-02-28T07:20:07;11.90;69.10
11091;DHT22;5599;52.210;21.046;2024-02-28T07:22:36;11.90;92.00
11091;DHT22;5599;52.210;21.046;2024-02-28T07:25:06;12.00;93.20
11091;DHT22;5599;52.210;21.046;2024-02-28T07:27:35;12.00;43.40
11091;DHT22;5599;52.210;21.046;2024-02-28T07:30:05;12.10;15.50
11091;DHT22;5599;52.210;21.046;2024-02-28T07:32:36;12.00;1.00
11091;DHT22;5599;52.210;21.046;2024-02-28T07:35:06;12.00;1.00
11091;DHT22;5599;52.210;21.046;2024-02-28T07:37:35;12.00;18.30
11091;DHT22;5599;52.210;21.046;2024-02-28T07:40:06;12.00;43.60
11091;DHT22;5599;52.210;21.046;2024-02-28T07:42:37;12.10;17.50
11091;DHT22;5599;52.210;21.046;2024-02-28T07:45:06;12.20;9.30
11091;DHT22;5599;52.210;21.046;2024-02-28T07:47:37;12.20;1.00
11091;DHT22;5599;52.210;21.046;2024-02-28T07:50:08;12.20;1.00
11091;DHT22;5599;52.210;21.046;2024-02-28T07:52:36;12.20;1.00
11091;DHT22;5599;52.210;21.046;2024-02-28T07:55:06;12.30;1.00
11091;DHT22;5599;52.210;21.046;2024-02-28T07:57:35;12.30;1.00
11091;DHT22;5599;52.210;21.046;2024-02-28T08:00:05;12.30;1.00
11091;DHT22;5599;52.210;21.046;2024-02-28T08:02:41;12.40;1.00
11091;DHT22;5599;52.210;21.046;2024-02-28T08:05:10;12.40;1.00
11091;DHT22;5599;52.210;21.046;2024-02-28T08:07:39;12.40;1.00
11091;DHT22;5599;52.210;21.046;2024-02-28T08:10:09;12.50;1.00
11091;DHT22;5599;52.210;21.046;2024-02-28T08:12:39;12.60;1.00
11091;DHT22;5599;52.210;21.046;2024-02-28T08:15:08;12.60;1.00
11091;DHT22;5599;52.210;21.046;2024-02-28T08:17:37;12.60;1.00
11091;DHT22;5599;52.210;21.046;2024-02-28T08:20:09;12.60;1.00
11091;DHT22;5599;52.210;21.046;2024-02-28T08:22:38;12.60;1.00
11091;DHT22;5599;52.210;21.046;2024-02-28T08:25:07;12.60;1.00
11091;DHT22;5599;52.210;21.046;2024-02-28T08:27:38;12.60;1.00
11091;DHT22;5599;52.210;21.046;2024-02-28T08:30:08;12.60;1.00
11091;DHT22;5599;52.210;21.046;2024-02-28T08:32:37;12.70;1.00
11091;DHT22;5599;52.210;21.046;2024-02-28T08:35:09;12.80;1.00
11091;DHT22;5599;52.210;21.046;2024-02-28T08:37:38;12.80;1.00
11091;DHT22;5599;52.210;21.046;2024-02-28T08:40:08;12.90;1.00
11091;DHT22;5599;52.210;21.046;2024-02-28T08:42:37;13.00;1.00
11091;DHT22;5599;52.210;21.046;2024-02-28T08:45:07;13.00;1.00
11091;DHT22;5599;52.210;21.046;2024-02-28T08:47:36;13.00;1.00
11091;DHT22;5599;52.210;21.046;2024-02-28T08:50:05;13.00;1.00
11091;DHT22;5599;52.210;21.046;2024-02-28T08:52:36;13.10;1.00
11091;DHT22;5599;52.210;21.046;2024-02-28T08:55:05;13.30;1.00
11091;DHT22;5599;52.210;21.046;2024-02-28T08:57:34;13.30;1.00
11091;DHT22;5599;52.210;21.046;2024-02-28T09:00:04;13.40;1.00
11091;DHT22;5599;52.210;21.046;2024-02-28T09:02:36;13.50;1.00
11091;DHT22;5599;52.210;21.046;2024-02-28T09:05:06;13.60;1.00
11091;DHT22;5599;52.210;21.046;2024-02-28T09:07:37;13.70;1.00
11091;DHT22;5599;52.210;21.046;2024-02-28T09:10:07;13.80;1.00
11091;DHT22;5599;52.210;21.046;2024-02-28T09:12:36;13.90;1.00
11091;DHT22;5599;52.210;21.046;2024-02-28T09:15:06;14.00;1.00
11091;DHT22;5599;52.210;21.046;2024-02-28T09:17:35;14.10;99.90
11091;DHT22;5599;52.210;21.046;2024-02-28T09:20:04;14.30;99.90
11091;DHT22;5599;52.210;21.046;2024-02-28T09:22:33;14.40;99.90
11091;DHT22;5599;52.210;21.046;2024-02-28T09:25:05;14.50;99.90
11091;DHT22;5599;52.210;21.046;2024-02-28T09:27:37;14.60;99.90
11091;DHT22;5599;52.210;21.046;2024-02-28T09:30:07;14.60;99.90
11091;DHT22;5599;52.210;21.046;2024-02-28T09:32:36;14.70;59.30
11091;DHT22;5599;52.210;21.046;2024-02-28T09:35:06;14.60;1.00
11091;DHT22;5599;52.210;21.046;2024-02-28T09:37:36;14.60;1.00
11091;DHT22;5599;52.210;21.046;2024-02-28T09:40:09;14.60;99.90
11091;DHT22;5599;52.210;21.046;2024-02-28T09:42:39;14.60;99.90
11091;DHT22;5599;52.210;21.046;2024-02-28T09:45:10;14.70;99.90
11091;DHT22;5599;52.210;21.046;2024-02-28T09:47:40;14.80;94.40
11091;DHT22;5599;52.210;21.046;2024-02-28T09:50:09;14.80;23.00
11091;DHT22;5599;52.210;21.046;2024-02-28T09:52:38;14.90;1.00
11091;DHT22;5599;52.210;21.046;2024-02-28T09:55:09;14.80;1.00
11091;DHT22;5599;52.210;21.046;2024-02-28T09:57:38;14.80;1.00
11091;DHT22;5599;52.210;21.046;2024-02-28T10:00:09;13.70;1.00
11091;DHT22;5599;52.210;21.046;2024-02-28T10:02:39;14.80;1.00
11091;DHT22;5599;52.210;21.046;2024-02-28T10:05:10;14.90;1.00
11091;DHT22;5599;52.210;21.046;2024-02-28T10:07:39;14.80;1.00
11091;DHT22;5599;52.210;21.046;2024-02-28T10:10:09;14.80;28.00
11091;DHT22;5599;52.210;21.046;2024-02-28T10:12:41;14.90;1.00
11091;DHT22;5599;52.210;21.046;2024-02-28T10:15:11;14.90;1.00
11091;DHT22;5599;52.210;21.046;2024-02-28T10:17:40;15.00;1.00
11091;DHT22;5599;52.210;21.046;2024-02-28T10:20:12;15.00;1.00
11091;DHT22;5599;52.210;21.046;2024-02-28T10:22:41;14.90;1.00
11091;DHT22;5599;52.210;21.046;2024-02-28T10:25:11;14.80;1.00
11091;DHT22;5599;52.210;21.046;2024-02-28T10:27:40;14.80;1.00
11091;DHT22;5599;52.210;21.046;2024-02-28T10:30:10;14.70;1.00
11091;DHT22;5599;52.210;21.046;2024-02-28T10:32:48;14.60;1.00
11091;DHT22;5599;52.210;21.046;2024-02-28T10:35:18;14.50;1.00
11091;DHT22;5599;52.210;21.046;2024-02-28T10:37:47;14.40;1.00
11091;DHT22;5599;52.210;21.046;2024-02-28T10:40:20;14.30;1.00
11091;DHT22;5599;52.210;21.046;2024-02-28T10:42:50;14.20;99.90
11091;DHT22;5599;52.210;21.046;2024-02-28T10:45:20;14.20;99.90
11091;DHT22;5599;52.210;21.046;2024-02-28T10:48:14;14.10;99.90
11091;DHT22;5599;52.210;21.046;2024-02-28T10:50:44;14.00;99.90
11091;DHT22;5599;52.210;21.046;2024-02-28T10:53:14;14.00;99.90
11091;DHT22;5599;52.210;21.046;2024-02-28T10:55:48;14.00;99.90
11091;DHT22;5599;52.210;21.046;2024-02-28T10:58:19;14.00;99.90
11091;DHT22;5599;52.210;21.046;2024-02-28T11:00:51;14.00;99.90
11091;DHT22;5599;52.210;21.046;2024-02-28T11:03:20;14.00;99.90
11091;DHT22;5599;52.210;21.046;2024-02-28T11:05:52;14.00;99.90
11091;DHT22;5599;52.210;21.046;2024-02-28T11:08:22;14.00;99.90
11091;DHT22;5599;52.210;21.046;2024-02-28T11:11:03;14.00;1.00
11091;DHT22;5599;52.210;21.046;2024-02-28T11:13:32;14.00;99.90
11091;DHT22;5599;52.210;21.046;2024-02-28T11:16:07;13.90;1.00
11091;DHT22;5599;52.210;21.046;2024-02-28T11:18:47;13.90;99.90
11091;DHT22;5599;52.210;21.046;2024-02-28T11:21:17;13.90;1.00
11091;DHT22;5599;52.210;21.046;2024-02-28T11:23:46;13.90;1.00
11091;DHT22;5599;52.210;21.046;2024-02-28T11:26:17;13.90;99.90
11091;DHT22;5599;52.210;21.046;2024-02-28T11:28:48;13.90;99.90
11091;DHT22;5599;52.210;21.046;2024-02-28T11:31:16;13.90;99.90
11091;DHT22;5599;52.210;21.046;2024-02-28T11:33:46;13.90;99.90
11091;DHT22;5599;52.210;21.046;2024-02-28T11:36:15;14.00;1.00
11091;DHT22;5599;52.210;21.046;2024-02-28T11:38:44;14.10;99.90
11091;DHT22;5599;52.210;21.046;2024-02-28T11:41:13;14.10;99.90
11091;DHT22;5599;52.210;21.046;2024-02-28T11:43:43;13.90;99.90
11091;DHT22;5599;52.210;21.046;2024-02-28T11:46:18;14.10;99.90
11091;DHT22;5599;52.210;21.046;2024-02-28T11:48:47;14.20;99.90
11091;DHT22;5599;52.210;21.046;2024-02-28T11:51:16;14.20;99.90
11091;DHT22;5599;52.210;21.046;2024-02-28T11:53:45;14.10;99.90
11091;DHT22;5599;52.210;21.046;2024-02-28T11:56:14;14.00;99.90
11091;DHT22;5599;52.210;21.046;2024-02-28T11:58:51;13.90;99.90
11091;DHT22;5599;52.210;21.046;2024-02-28T12:01:31;13.80;99.90
11091;DHT22;5599;52.210;21.046;2024-02-28T12:04:02;13.80;99.90
11091;DHT22;5599;52.210;21.046;2024-02-28T12:06:32;13.80;99.90
11091;DHT22;5599;52.210;21.046;2024-02-28T12:09:01;13.80;99.90
11091;DHT22;5599;52.210;21.046;2024-02-28T12:11:30;13.80;99.90
11091;DHT22;5599;52.210;21.046;2024-02-28T12:14:03;13.70;99.90
11091;DHT22;5599;52.210;21.046;2024-02-28T12:16:34;13.60;99.90
11091;DHT22;5599;52.210;21.046;2024-02-28T12:19:07;13.50;1.00
11091;DHT22;5599;52.210;21.046;2024-02-28T12:21:37;13.40;1.00
11091;DHT22;5599;52.210;21.046;2024-02-28T12:24:07;13.40;1.00
11091;DHT22;5599;52.210;21.046;2024-02-28T12:26:38;13.40;1.00
11091;DHT22;5599;52.210;21.046;2024-02-28T12:29:08;13.50;1.00
11091;DHT22;5599;52.210;21.046;2024-02-28T12:31:38;13.30;1.00
11091;DHT22;5599;52.210;21.046;2024-02-28T12:34:07;13.30;1.00
11091;DHT22;5599;52.210;21.046;2024-02-28T12:36:36;13.20;1.00
11091;DHT22;5599;52.210;21.046;2024-02-28T12:39:05;13.10;1.00
11091;DHT22;5599;52.210;21.046;2024-02-28T12:41:35;13.00;1.00
11091;DHT22;5599;52.210;21.046;2024-02-28T12:44:05;13.00;1.00
11091;DHT22;5599;52.210;21.046;2024-02-28T12:46:36;12.90;1.00
11091;DHT22;5599;52.210;21.046;2024-02-28T12:49:05;12.80;1.00
11091;DHT22;5599;52.210;21.046;2024-02-28T12:51:39;12.70;1.00
11091;DHT22;5599;52.210;21.046;2024-02-28T12:54:08;12.50;1.00
11091;DHT22;5599;52.210;21.046;2024-02-28T12:56:38;12.50;1.00
11091;DHT22;5599;52.210;21.046;2024-02-28T12:59:10;12.50;1.00
11091;DHT22;5599;52.210;21.046;2024-02-28T13:01:41;12.40;1.00
11091;DHT22;5599;52.210;21.046;2024-02-28T13:04:10;12.40;1.00
11091;DHT22;5599;52.210;21.046;2024-02-28T13:06:39;12.30;1.00
11091;DHT22;5599;52.210;21.046;2024-02-28T13:09:08;12.20;1.00
11091;DHT22;5599;52.210;21.046;2024-02-28T13:11:40;12.20;1.00
11091;DHT22;5599;52.210;21.046;2024-02-28T13:14:09;12.10;1.00
11091;DHT22;5599;52.210;21.046;2024-02-28T13:16:38;12.20;1.00
11091;DHT22;5599;52.210;21.046;2024-02-28T13:19:08;12.10;1.00
11091;DHT22;5599;52.210;21.046;2024-02-28T13:21:37;12.10;1.00
11091;DHT22;5599;52.210;21.046;2024-02-28T13:24:07;12.00;1.00
11091;DHT22;5599;52.210;21.046;2024-02-28T13:26:36;12.00;1.00
11091;DHT22;5599;52.210;21.046;2024-02-28T13:29:05;12.00;1.00
11091;DHT22;5599;52.210;21.046;2024-02-28T13:31:35;11.90;1.00
11091;DHT22;5599;52.210;21.046;2024-02-28T13:34:12;12.00;1.00
11091;DHT22;5599;52.210;21.046;2024-02-28T13:36:41;11.90;1.00
11091;DHT22;5599;52.210;21.046;2024-02-28T13:39:11;11.70;1.00
11091;DHT22;5599;52.210;21.046;2024-02-28T13:41:40;11.70;1.00
11091;DHT22;5599;52.210;21.046;2024-02-28T13:44:09;11.70;1.00
11091;DHT22;5599;52.210;21.046;2024-02-28T13:46:38;11.70;1.00
11091;DHT22;5599;52.210;21.046;2024-02-28T13:49:08;11.80;1.00
11091;DHT22;5599;52.210;21.046;2024-02-28T13:51:39;11.70;1.00
11091;DHT22;5599;52.210;21.046;2024-02-28T13:54:09;11.70;1.00
11091;DHT22;5599;52.210;21.046;2024-02-28T13:56:38;11.70;1.00
11091;DHT22;5599;52.210;21.046;2024-02-28T13:59:07;11.70;1.00
11091;DHT22;5599;52.210;21.046;2024-02-28T14:01:37;11.60;1.00
11091;DHT22;5599;52.210;21.046;2024-02-28T14:04:06;11.70;1.00
11091;DHT22;5599;52.210;21.046;2024-02-28T14:06:35;11.70;1.00
11091;DHT22;5599;52.210;21.046;2024-02-28T14:09:05;11.60;1.00
11091;DHT22;5599;52.210;21.046;2024-02-28T14:11:34;11.60;1.00
11091;DHT22;5599;52.210;21.046;2024-02-28T14:14:04;11.60;1.00
11091;DHT22;5599;52.210;21.046;2024-02-28T14:16:33;11.50;1.00
11091;DHT22;5599;52.210;21.046;2024-02-28T14:19:02;11.50;1.00
11091;DHT22;5599;52.210;21.046;2024-02-28T14:21:31;11.40;1.00
11091;DHT22;5599;52.210;21.046;2024-02-28T14:24:01;11.50;1.00
11091;DHT22;5599;52.210;21.046;2024-02-28T14:26:31;11.50;1.00
11091;DHT22;5599;52.210;21.046;2024-02-28T14:29:00;11.50;1.00
11091;DHT22;5599;52.210;21.046;2024-02-28T14:31:29;11.40;1.00
11091;DHT22;5599;52.210;21.046;2024-02-28T14:33:58;11.50;1.00
11091;DHT22;5599;52.210;21.046;2024-02-28T14:36:27;11.40;1.00
11091;DHT22;5599;52.210;21.046;2024-02-28T14:38:56;11.40;1.00
11091;DHT22;5599;52.210;21.046;2024-02-28T14:41:25;11.40;1.00
11091;DHT22;5599;52.210;21.046;2024-02-28T14:43:55;11.30;1.00
11091;DHT22;5599;52.210;21.046;2024-02-28T14:46:24;11.40;1.00
11091;DHT22;5599;52.210;21.046;2024-02-28T14:48:53;11.40;1.00
11091;DHT22;5599;52.210;21.046;2024-02-28T14:51:22;11.30;1.00
11091;DHT22;5599;52.210;21.046;2024-02-28T14:53:51;11.30;1.00
11091;DHT22;5599;52.210;21.046;2024-02-28T14:56:20;11.30;1.00
11091;DHT22;5599;52.210;21.046;2024-02-28T14:58:49;11.30;1.00
11091;DHT22;5599;52.210;21.046;2024-02-28T15:01:19;11.20;1.00
11091;DHT22;5599;52.210;21.046;2024-02-28T15:03:50;11.10;1.00
11091;DHT22;5599;52.210;21.046;2024-02-28T15:06:19;11.20;1.00
11091;DHT22;5599;52.210;21.046;2024-02-28T15:08:48;11.10;1.00
11091;DHT22;5599;52.210;21.046;2024-02-28T15:11:17;11.20;1.00
11091;DHT22;5599;52.210;21.046;2024-02-28T15:13:46;11.20;1.00
11091;DHT22;5599;52.210;21.046;2024-02-28T15:16:15;11.20;1.00
11091;DHT22;5599;52.210;21.046;2024-02-28T15:18:46;11.20;1.00
11091;DHT22;5599;52.210;21.046;2024-02-28T15:21:15;11.20;1.00
11091;DHT22;5599;52.210;21.046;2024-02-28T15:23:44;11.30;1.00
11091;DHT22;5599;52.210;21.046;2024-02-28T15:26:13;11.40;1.00
11091;DHT22;5599;52.210;21.046;2024-02-28T15:28:41;11.30;1.00
11091;DHT22;5599;52.210;21.046;2024-02-28T15:31:10;11.30;1.00
11091;DHT22;5599;52.210;21.046;2024-02-28T15:33:39;11.30;1.00
11091;DHT22;5599;52.210;21.046;2024-02-28T15:36:10;11.30;1.00
11091;DHT22;5599;52.210;21.046;2024-02-28T15:38:39;11.30;1.00
11091;DHT22;5599;52.210;21.046;2024-02-28T15:41:07;11.30;1.00
11091;DHT22;5599;52.210;21.046;2024-02-28T15:43:36;11.30;1.00
11091;DHT22;5599;52.210;21.046;2024-02-28T15:46:05;11.30;1.00
11091;DHT22;5599;52.210;21.046;2024-02-28T15:48:34;11.30;1.00
11091;DHT22;5599;52.210;21.046;2024-02-28T15:51:04;11.30;1.00
11091;DHT22;5599;52.210;21.046;2024-02-28T15:53:34;11.30;1.00